Time;durP1;ratioP1;P1;durP2;ratioP2;P2;SDS_P1;SDS_P2;PMS_P1;PMS_P2;Temp;Humidity;BMP_temperature;BMP_pressure;BME280_temperature;BME280_humidity;BME280_pressure;Samples;Min_cycle;Max_cycle;Signal;HPM_P1;HPM_P2
2023/08/24 00:01:14;;;;;;;3.60;2.22;;;;;;;;;;5008365;28;20273;-68
2023/08/24 00:03:39;;;;;;;4.55;2.55;;;;;;;;;;5009085;28;21115;-67
2023/08/24 00:06:06;;;;;;;6.75;3.47;;;;;;;;;;5008475;28;21011;-67
2023/08/24 00:08:31;;;;;;;6.38;2.95;;;;;;;;;;5021154;22;20230;-71
2023/08/24 00:10:56;;;;;;;6.60;3.15;;;;;;;;;;5007756;28;20201;-71
2023/08/24 00:13:21;;;;;;;7.38;2.83;;;;;;;;;;5001927;28;20631;-70
2023/08/24 00:15:46;;;;;;;7.20;3.35;;;;;;;;;;5006095;28;20617;-69
2023/08/24 00:18:12;;;;;;;5.85;3.25;;;;;;;;;;5007075;28;20213;-70
2023/08/24 00:20:37;;;;;;;2.92;2.63;;;;;;;;;;5007318;28;20201;-70
2023/08/24 00:23:03;;;;;;;4.78;2.67;;;;;;;;;;5006529;28;20218;-70
2023/08/24 00:25:28;;;;;;;4.95;3.33;;;;;;;;;;5005668;28;20278;-69
2023/08/24 00:27:53;;;;;;;8.48;3.83;;;;;;;;;;5007342;28;20653;-71
2023/08/24 00:30:19;;;;;;;5.80;3.40;;;;;;;;;;5008501;28;20213;-71
2023/08/24 00:32:44;;;;;;;3.90;3.10;;;;;;;;;;5007093;28;20178;-71
2023/08/24 00:35:10;;;;;;;4.40;3.22;;;;;;;;;;5008590;28;20237;-71
2023/08/24 00:37:35;;;;;;;7.80;4.32;;;;;;;;;;5011055;28;20186;-71
2023/08/24 00:40:07;;;;;;;5.72;4.00;;;;;;;;;;5009368;28;20540;-71
2023/08/24 00:42:32;;;;;;;5.30;3.40;;;;;;;;;;5010535;28;20240;-71
2023/08/24 00:44:58;;;;;;;5.90;4.10;;;;;;;;;;5009777;28;20707;-71
2023/08/24 00:47:23;;;;;;;5.55;3.72;;;;;;;;;;5010885;28;20659;-70
2023/08/24 00:49:48;;;;;;;9.25;4.55;;;;;;;;;;5010429;28;20221;-70
2023/08/24 00:52:14;;;;;;;5.78;3.28;;;;;;;;;;5003921;28;20241;-70
2023/08/24 00:54:40;;;;;;;9.20;4.28;;;;;;;;;;5007619;28;20214;-70
2023/08/24 00:57:06;;;;;;;8.25;4.05;;;;;;;;;;5009978;28;20195;-70
2023/08/24 00:59:32;;;;;;;4.32;3.90;;;;;;;;;;5011005;28;20226;-70
2023/08/24 01:01:58;;;;;;;5.50;3.90;;;;;;;;;;5011172;28;20567;-70
2023/08/24 01:04:24;;;;;;;8.23;3.55;;;;;;;;;;5007335;28;20203;-70
2023/08/24 01:06:49;;;;;;;8.48;4.30;;;;;;;;;;5009288;28;20325;-70
2023/08/24 01:09:15;;;;;;;6.80;4.00;;;;;;;;;;5009726;28;20229;-70
2023/08/24 01:11:49;;;;;;;8.90;4.53;;;;;;;;;;5010991;28;20276;-70
2023/08/24 01:14:30;;;;;;;6.35;4.30;;;;;;;;;;5009679;28;20213;-70
2023/08/24 01:16:58;;;;;;;8.50;5.10;;;;;;;;;;5010826;28;20249;-70
2023/08/24 01:19:26;;;;;;;8.10;4.53;;;;;;;;;;5010476;28;20297;-70
2023/08/24 01:21:53;;;;;;;9.35;4.70;;;;;;;;;;5010046;28;20185;-70
2023/08/24 01:24:23;;;;;;;7.75;4.65;;;;;;;;;;5008863;28;20317;-70
2023/08/24 01:26:48;;;;;;;6.53;4.93;;;;;;;;;;5005359;28;20193;-70
2023/08/24 01:29:15;;;;;;;9.32;4.93;;;;;;;;;;5009412;28;20202;-70
2023/08/24 01:31:40;;;;;;;7.32;4.18;;;;;;;;;;5011753;28;20614;-70
2023/08/24 01:34:05;;;;;;;9.05;4.82;;;;;;;;;;5007885;28;20267;-70
2023/08/24 01:36:31;;;;;;;7.38;5.05;;;;;;;;;;5010064;28;20221;-70
2023/08/24 01:39:11;;;;;;;7.05;4.70;;;;;;;;;;5009769;28;20225;-70
2023/08/24 01:41:42;;;;;;;10.98;4.82;;;;;;;;;;5009375;28;20861;-70
2023/08/24 01:44:08;;;;;;;5.97;4.55;;;;;;;;;;5008427;28;20260;-69
2023/08/24 01:46:34;;;;;;;6.78;5.32;;;;;;;;;;5009479;28;20281;-69
2023/08/24 01:48:59;;;;;;;14.82;6.43;;;;;;;;;;5010250;28;20234;-71
2023/08/24 01:51:25;;;;;;;6.07;4.57;;;;;;;;;;5009419;28;20210;-70
2023/08/24 01:53:51;;;;;;;9.40;5.28;;;;;;;;;;5008985;28;20310;-69
2023/08/24 01:56:17;;;;;;;9.15;4.97;;;;;;;;;;5010453;28;20183;-69
2023/08/24 01:58:42;;;;;;;8.65;5.35;;;;;;;;;;5004398;28;20236;-69
2023/08/24 02:01:08;;;;;;;6.75;5.47;;;;;;;;;;5009024;28;20184;-69
2023/08/24 02:03:33;;;;;;;7.35;4.85;;;;;;;;;;5010173;28;20534;-70
2023/08/24 02:05:58;;;;;;;7.05;5.20;;;;;;;;;;5009503;28;21048;-70
2023/08/24 02:08:23;;;;;;;9.75;5.07;;;;;;;;;;5009822;28;20304;-69
2023/08/24 02:10:48;;;;;;;6.93;5.22;;;;;;;;;;5010097;28;20893;-69
2023/08/24 02:13:14;;;;;;;7.32;4.68;;;;;;;;;;5005276;28;20202;-69
2023/08/24 02:15:39;;;;;;;9.30;5.50;;;;;;;;;;5010310;28;20219;-70
2023/08/24 02:18:05;;;;;;;10.43;5.47;;;;;;;;;;5009705;28;20292;-70
2023/08/24 02:20:30;;;;;;;9.85;4.95;;;;;;;;;;5009440;28;20182;-70
2023/08/24 02:22:55;;;;;;;7.45;5.03;;;;;;;;;;5009234;28;20254;-71
2023/08/24 02:25:20;;;;;;;10.00;5.63;;;;;;;;;;5008672;28;20186;-71
2023/08/24 02:27:46;;;;;;;9.15;6.20;;;;;;;;;;5008117;28;20186;-71
2023/08/24 02:30:11;;;;;;;11.68;5.82;;;;;;;;;;5005423;28;20210;-71
2023/08/24 02:32:37;;;;;;;7.50;5.25;;;;;;;;;;5007159;28;20178;-69
2023/08/24 02:35:02;;;;;;;11.88;5.57;;;;;;;;;;5008194;28;20224;-71
2023/08/24 02:37:27;;;;;;;8.18;6.70;;;;;;;;;;5008576;28;20967;-71
2023/08/24 02:39:52;;;;;;;9.82;6.35;;;;;;;;;;5009331;28;20228;-70
2023/08/24 02:42:18;;;;;;;11.52;7.10;;;;;;;;;;5010105;28;20190;-70
2023/08/24 02:44:43;;;;;;;11.07;6.43;;;;;;;;;;5007241;28;20269;-71
2023/08/24 02:47:08;;;;;;;9.27;5.93;;;;;;;;;;5008650;28;20309;-71
2023/08/24 02:49:33;;;;;;;8.30;5.90;;;;;;;;;;5007549;28;20252;-69
2023/08/24 02:52:00;;;;;;;12.00;6.70;;;;;;;;;;5008673;28;20403;-69
2023/08/24 02:54:25;;;;;;;12.43;6.63;;;;;;;;;;5007288;28;20860;-69
2023/08/24 02:56:50;;;;;;;9.40;6.47;;;;;;;;;;5008199;28;20183;-70
2023/08/24 02:59:15;;;;;;;7.97;6.22;;;;;;;;;;5008568;28;20259;-70
2023/08/24 03:01:41;;;;;;;10.90;6.93;;;;;;;;;;5008463;28;20190;-70
2023/08/24 03:04:06;;;;;;;9.90;6.30;;;;;;;;;;5007493;28;20183;-70
2023/08/24 03:06:31;;;;;;;9.23;6.47;;;;;;;;;;5004529;28;20245;-70
2023/08/24 03:08:56;;;;;;;9.27;6.90;;;;;;;;;;5007584;28;20767;-70
2023/08/24 03:11:22;;;;;;;10.25;7.57;;;;;;;;;;5009611;28;20192;-69
2023/08/24 03:13:47;;;;;;;10.18;7.65;;;;;;;;;;5007541;28;20208;-69
2023/08/24 03:16:12;;;;;;;11.02;7.15;;;;;;;;;;5008524;28;20193;-70
2023/08/24 03:18:37;;;;;;;14.10;7.78;;;;;;;;;;5007969;28;20208;-70
2023/08/24 03:21:03;;;;;;;15.02;8.98;;;;;;;;;;5007013;28;20194;-70
2023/08/24 03:23:28;;;;;;;12.85;8.07;;;;;;;;;;5002464;28;20182;-70
2023/08/24 03:25:55;;;;;;;15.43;8.85;;;;;;;;;;5007401;28;20279;-69
2023/08/24 03:28:20;;;;;;;16.13;8.70;;;;;;;;;;5007510;28;20282;-70
2023/08/24 03:30:50;;;;;;;11.68;8.05;;;;;;;;;;5006642;28;20316;-70
2023/08/24 03:33:15;;;;;;;23.45;8.80;;;;;;;;;;5005819;28;20276;-69
2023/08/24 03:35:40;;;;;;;13.52;9.07;;;;;;;;;;5007989;28;20551;-70
2023/08/24 03:38:05;;;;;;;13.05;8.65;;;;;;;;;;5008156;28;20223;-70
2023/08/24 03:40:31;;;;;;;15.30;9.80;;;;;;;;;;5008170;28;20199;-70
2023/08/24 03:42:56;;;;;;;14.77;9.98;;;;;;;;;;5007721;28;20190;-70
2023/08/24 03:45:21;;;;;;;14.23;8.73;;;;;;;;;;5008133;28;20182;-70
2023/08/24 03:47:47;;;;;;;16.17;9.93;;;;;;;;;;5004473;28;20179;-70
2023/08/24 03:50:12;;;;;;;17.63;9.43;;;;;;;;;;5006275;28;20217;-70
2023/08/24 03:52:39;;;;;;;16.95;10.25;;;;;;;;;;5007691;28;20197;-70
2023/08/24 03:55:04;;;;;;;15.85;9.93;;;;;;;;;;5005730;28;20218;-70
2023/08/24 03:57:30;;;;;;;19.35;9.18;;;;;;;;;;5006849;28;20184;-70
2023/08/24 03:59:55;;;;;;;13.15;9.52;;;;;;;;;;5006859;28;20198;-70
2023/08/24 04:02:21;;;;;;;13.60;9.50;;;;;;;;;;5006912;28;20183;-70
2023/08/24 04:04:46;;;;;;;15.75;8.90;;;;;;;;;;5006461;28;20208;-70
2023/08/24 04:07:11;;;;;;;14.57;9.40;;;;;;;;;;4998974;28;21135;-70
2023/08/24 04:09:36;;;;;;;15.50;10.23;;;;;;;;;;5006832;28;20240;-70
2023/08/24 04:12:02;;;;;;;14.32;9.95;;;;;;;;;;5007526;28;20624;-69
2023/08/24 04:14:27;;;;;;;17.30;10.43;;;;;;;;;;5008044;28;20334;-70
2023/08/24 04:16:52;;;;;;;18.23;10.80;;;;;;;;;;5007173;28;20194;-70
2023/08/24 04:19:17;;;;;;;15.15;10.27;;;;;;;;;;5008587;28;20217;-70
2023/08/24 04:21:43;;;;;;;14.70;10.23;;;;;;;;;;5008189;28;20178;-70
2023/08/24 04:24:08;;;;;;;15.88;10.70;;;;;;;;;;5007522;28;20199;-70
2023/08/24 04:26:33;;;;;;;21.15;12.00;;;;;;;;;;5006055;28;20290;-70
2023/08/24 04:28:58;;;;;;;17.83;11.45;;;;;;;;;;5007408;28;20197;-70
2023/08/24 04:31:24;;;;;;;16.23;10.32;;;;;;;;;;5007616;28;20179;-70
2023/08/24 04:33:49;;;;;;;14.93;10.07;;;;;;;;;;5006847;28;20202;-70
2023/08/24 04:36:15;;;;;;;16.85;11.73;;;;;;;;;;5006737;28;20178;-70
2023/08/24 04:38:40;;;;;;;16.63;10.45;;;;;;;;;;4997750;28;20724;-70
2023/08/24 04:41:08;;;;;;;19.17;10.80;;;;;;;;;;5005712;28;20232;-70
2023/08/24 04:43:33;;;;;;;17.42;11.13;;;;;;;;;;5006137;28;20908;-70
2023/08/24 04:45:58;;;;;;;15.15;11.25;;;;;;;;;;5005831;28;20178;-70
2023/08/24 04:48:24;;;;;;;14.20;9.48;;;;;;;;;;5006831;28;20242;-71
2023/08/24 04:50:50;;;;;;;21.20;11.25;;;;;;;;;;5005355;28;20760;-70
2023/08/24 04:53:16;;;;;;;15.38;10.98;;;;;;;;;;5005598;28;20687;-70
2023/08/24 04:55:41;;;;;;;15.45;10.02;;;;;;;;;;5005446;28;20274;-70
2023/08/24 04:58:07;;;;;;;19.33;10.65;;;;;;;;;;5007183;28;20186;-70
2023/08/24 05:00:33;;;;;;;17.08;11.02;;;;;;;;;;5006633;28;20672;-70
2023/08/24 05:02:58;;;;;;;15.50;11.65;;;;;;;;;;5005766;28;20187;-69
2023/08/24 05:05:23;;;;;;;15.35;9.15;;;;;;;;;;5006124;28;20707;-71
2023/08/24 05:07:49;;;;;;;18.08;11.85;;;;;;;;;;5005971;28;20249;-71
2023/08/24 05:10:14;;;;;;;13.18;10.85;;;;;;;;;;5005839;28;20601;-71
2023/08/24 05:12:39;;;;;;;15.60;10.77;;;;;;;;;;5005992;28;20207;-70
2023/08/24 05:15:05;;;;;;;19.60;12.18;;;;;;;;;;5006410;28;20588;-69
2023/08/24 05:17:31;;;;;;;14.85;10.27;;;;;;;;;;5006648;28;20186;-70
2023/08/24 05:19:56;;;;;;;14.20;9.70;;;;;;;;;;5009744;28;20236;-70
2023/08/24 05:22:22;;;;;;;14.40;10.32;;;;;;;;;;5010358;28;20183;-70
2023/08/24 05:24:47;;;;;;;17.38;10.13;;;;;;;;;;5007090;28;20197;-70
2023/08/24 05:27:12;;;;;;;13.05;9.98;;;;;;;;;;5007971;28;20653;-70
2023/08/24 05:29:37;;;;;;;15.70;11.02;;;;;;;;;;5010223;28;20216;-70
2023/08/24 05:32:03;;;;;;;17.02;10.60;;;;;;;;;;5009891;28;20187;-70
2023/08/24 05:34:28;;;;;;;15.80;10.30;;;;;;;;;;5009146;28;20655;-70
2023/08/24 05:36:54;;;;;;;15.85;10.55;;;;;;;;;;5009726;28;20178;-71
2023/08/24 05:39:19;;;;;;;15.75;10.27;;;;;;;;;;5006134;28;20210;-71
2023/08/24 05:41:44;;;;;;;18.20;11.73;;;;;;;;;;5008722;28;20278;-70
2023/08/24 05:44:09;;;;;;;24.30;12.57;;;;;;;;;;5009202;28;20190;-71
2023/08/24 05:46:34;;;;;;;20.65;12.77;;;;;;;;;;5008530;28;20187;-71
2023/08/24 05:49:00;;;;;;;19.58;12.52;;;;;;;;;;5009521;28;20209;-70
2023/08/24 05:51:25;;;;;;;19.60;11.93;;;;;;;;;;5010809;28;20194;-70
2023/08/24 05:53:55;;;;;;;17.45;10.25;;;;;;;;;;5008589;28;20226;-70
2023/08/24 05:56:20;;;;;;;17.25;11.23;;;;;;;;;;5010818;28;20656;-70
2023/08/24 05:58:46;;;;;;;15.68;10.52;;;;;;;;;;5009678;28;20206;-69
2023/08/24 06:01:11;;;;;;;15.82;10.02;;;;;;;;;;5006747;28;20182;-69
2023/08/24 06:03:36;;;;;;;16.65;10.13;;;;;;;;;;5009669;28;20210;-70
2023/08/24 06:06:03;;;;;;;13.10;9.38;;;;;;;;;;5008879;28;20191;-70
2023/08/24 06:08:28;;;;;;;14.32;10.23;;;;;;;;;;5005274;28;20225;-70
2023/08/24 06:10:53;;;;;;;20.45;10.75;;;;;;;;;;5008283;28;20230;-70
2023/08/24 06:13:18;;;;;;;15.27;10.70;;;;;;;;;;5005770;28;20280;-70
2023/08/24 06:15:44;;;;;;;13.13;10.18;;;;;;;;;;5008486;28;20214;-70
2023/08/24 06:18:09;;;;;;;18.15;9.95;;;;;;;;;;5006434;28;20215;-70
2023/08/24 06:20:34;;;;;;;23.17;10.52;;;;;;;;;;5005634;28;20188;-69
2023/08/24 06:22:59;;;;;;;15.88;9.23;;;;;;;;;;5006204;28;20396;-69
2023/08/24 06:25:25;;;;;;;13.77;9.40;;;;;;;;;;5004684;28;20982;-68
2023/08/24 06:27:50;;;;;;;16.45;10.85;;;;;;;;;;5005876;28;20187;-70
2023/08/24 06:30:15;;;;;;;15.52;9.98;;;;;;;;;;5008939;28;20198;-71
2023/08/24 06:32:40;;;;;;;19.10;11.07;;;;;;;;;;5008750;28;20187;-70
2023/08/24 06:35:06;;;;;;;15.07;10.63;;;;;;;;;;5007563;28;21118;-70
2023/08/24 06:37:31;;;;;;;14.18;10.23;;;;;;;;;;5009838;28;20316;-70
2023/08/24 06:39:56;;;;;;;15.68;10.45;;;;;;;;;;5006486;28;20206;-69
2023/08/24 06:42:21;;;;;;;17.10;10.43;;;;;;;;;;5007247;28;20232;-70
2023/08/24 06:44:49;;;;;;;13.07;9.73;;;;;;;;;;5009927;28;20194;-69
2023/08/24 06:47:15;;;;;;;13.15;8.38;;;;;;;;;;5005875;28;20904;-69
2023/08/24 06:49:40;;;;;;;12.82;9.30;;;;;;;;;;5005637;28;20341;-69
2023/08/24 06:52:05;;;;;;;13.80;9.32;;;;;;;;;;5008719;28;20755;-69
2023/08/24 06:54:30;;;;;;;14.27;9.50;;;;;;;;;;5007032;28;20680;-70
2023/08/24 06:56:56;;;;;;;11.98;8.68;;;;;;;;;;5008146;28;20237;-70
2023/08/24 06:59:21;;;;;;;14.30;9.48;;;;;;;;;;5006559;28;20206;-69
2023/08/24 07:01:47;;;;;;;13.25;7.75;;;;;;;;;;5002879;28;21325;-69
2023/08/24 07:04:12;;;;;;;17.27;9.43;;;;;;;;;;5006210;28;20591;-69
2023/08/24 07:06:37;;;;;;;11.50;8.70;;;;;;;;;;5007466;28;20675;-69
2023/08/24 07:09:06;;;;;;;15.30;9.52;;;;;;;;;;5008457;28;20525;-69
2023/08/24 07:11:31;;;;;;;16.25;9.43;;;;;;;;;;5002788;28;20683;-68
2023/08/24 07:13:56;;;;;;;11.88;7.85;;;;;;;;;;5008770;28;20210;-69
2023/08/24 07:16:22;;;;;;;11.10;8.80;;;;;;;;;;5007831;28;20841;-69
2023/08/24 07:18:47;;;;;;;11.43;8.75;;;;;;;;;;5007472;28;20211;-69
2023/08/24 07:21:14;;;;;;;17.08;9.10;;;;;;;;;;5020187;28;20186;-69
2023/08/24 07:23:39;;;;;;;12.10;9.38;;;;;;;;;;5008211;28;20206;-69
2023/08/24 07:26:05;;;;;;;12.02;8.50;;;;;;;;;;5007797;28;20525;-69
2023/08/24 07:28:30;;;;;;;13.00;8.55;;;;;;;;;;5008460;28;20233;-69
2023/08/24 07:30:55;;;;;;;14.90;8.57;;;;;;;;;;5008710;28;20301;-69
2023/08/24 07:33:21;;;;;;;17.02;8.55;;;;;;;;;;5008982;28;20202;-70
2023/08/24 07:35:46;;;;;;;10.15;9.05;;;;;;;;;;5009729;28;20396;-70
2023/08/24 07:38:12;;;;;;;11.33;7.80;;;;;;;;;;5007790;28;20754;-70
2023/08/24 07:40:37;;;;;;;10.65;7.88;;;;;;;;;;5007832;28;20459;-70
2023/08/24 07:43:02;;;;;;;12.48;8.35;;;;;;;;;;5008679;28;20665;-70
2023/08/24 07:45:27;;;;;;;15.13;8.85;;;;;;;;;;5008919;28;20563;-70
2023/08/24 07:47:53;;;;;;;9.95;8.07;;;;;;;;;;5005159;28;20189;-70
2023/08/24 07:50:19;;;;;;;11.48;8.25;;;;;;;;;;5008360;28;20198;-70
2023/08/24 07:52:44;;;;;;;13.98;8.57;;;;;;;;;;5008576;28;20768;-70
2023/08/24 07:55:10;;;;;;;11.25;7.40;;;;;;;;;;5006320;28;20215;-68
2023/08/24 07:57:36;;;;;;;9.73;7.68;;;;;;;;;;5006278;28;20637;-70
2023/08/24 08:00:02;;;;;;;13.60;8.15;;;;;;;;;;5007673;28;20205;-70
2023/08/24 08:02:27;;;;;;;9.65;7.70;;;;;;;;;;5007897;28;20209;-69
2023/08/24 08:04:59;;;;;;;12.85;7.55;;;;;;;;;;5007022;28;20193;-70
2023/08/24 08:07:24;;;;;;;11.65;8.00;;;;;;;;;;5005978;28;21043;-70
2023/08/24 08:09:50;;;;;;;9.20;7.15;;;;;;;;;;5007627;28;21007;-70
2023/08/24 08:12:15;;;;;;;9.85;7.38;;;;;;;;;;5007014;28;20178;-70
2023/08/24 08:14:40;;;;;;;16.77;7.95;;;;;;;;;;5008357;28;20198;-69
2023/08/24 08:17:06;;;;;;;12.52;8.00;;;;;;;;;;5007913;28;20186;-69
2023/08/24 08:19:31;;;;;;;11.13;8.32;;;;;;;;;;5007668;28;20206;-69
2023/08/24 08:21:57;;;;;;;10.38;8.25;;;;;;;;;;5006834;28;20213;-70
2023/08/24 08:24:22;;;;;;;10.10;8.65;;;;;;;;;;5006811;28;20218;-69
2023/08/24 08:26:47;;;;;;;12.87;8.10;;;;;;;;;;5007866;28;20218;-69
2023/08/24 08:29:13;;;;;;;10.37;7.13;;;;;;;;;;5007575;28;20432;-69
2023/08/24 08:31:38;;;;;;;12.63;6.73;;;;;;;;;;5007344;28;20493;-69
2023/08/24 08:34:06;;;;;;;12.88;7.93;;;;;;;;;;5007593;28;21280;-69
2023/08/24 08:36:34;;;;;;;9.48;8.32;;;;;;;;;;5007845;28;20186;-69
2023/08/24 08:38:59;;;;;;;13.55;8.50;;;;;;;;;;5007193;28;20206;-70
2023/08/24 08:41:27;;;;;;;11.43;8.35;;;;;;;;;;5000813;28;20229;-70
2023/08/24 08:43:52;;;;;;;11.52;8.80;;;;;;;;;;5001745;28;20190;-70
2023/08/24 08:46:17;;;;;;;11.05;8.05;;;;;;;;;;5008137;28;20208;-69
2023/08/24 08:48:44;;;;;;;11.38;8.38;;;;;;;;;;5006873;28;20210;-69
2023/08/24 08:51:11;;;;;;;14.88;8.20;;;;;;;;;;5006978;28;20653;-69
2023/08/24 08:53:36;;;;;;;14.10;9.98;;;;;;;;;;5007976;28;20325;-71
2023/08/24 08:56:04;;;;;;;14.93;9.38;;;;;;;;;;5010637;28;20183;-69
2023/08/24 08:58:31;;;;;;;9.48;7.28;;;;;;;;;;5010897;28;20202;-70
2023/08/24 09:00:56;;;;;;;12.88;8.30;;;;;;;;;;5011908;28;21031;-70
2023/08/24 09:03:22;;;;;;;12.77;8.52;;;;;;;;;;5012009;28;20311;-70
2023/08/24 09:05:48;;;;;;;10.30;8.30;;;;;;;;;;5008421;28;20255;-70
2023/08/24 09:08:13;;;;;;;15.90;9.35;;;;;;;;;;5010966;28;20195;-69
2023/08/24 09:10:39;;;;;;;14.00;8.55;;;;;;;;;;5011018;28;20195;-70
2023/08/24 09:13:04;;;;;;;11.05;7.82;;;;;;;;;;5011087;28;20187;-71
2023/08/24 09:15:33;;;;;;;12.33;9.00;;;;;;;;;;5011618;28;20213;-69
2023/08/24 09:18:00;;;;;;;19.15;8.38;;;;;;;;;;5009858;28;20502;-69
2023/08/24 09:20:27;;;;;;;7.75;6.72;;;;;;;;;;5009295;28;20336;-70
2023/08/24 09:22:54;;;;;;;10.43;8.52;;;;;;;;;;5010634;28;20191;-68
2023/08/24 09:25:20;;;;;;;10.93;6.90;;;;;;;;;;5011843;28;20256;-70
2023/08/24 09:27:45;;;;;;;11.73;8.93;;;;;;;;;;5011902;28;20641;-70
2023/08/24 09:30:11;;;;;;;11.85;9.32;;;;;;;;;;5010315;28;21080;-70
2023/08/24 09:32:36;;;;;;;11.50;8.05;;;;;;;;;;5010664;28;20182;-70
2023/08/24 09:35:07;;;;;;;8.70;7.43;;;;;;;;;;5008007;28;20294;-69
2023/08/24 09:37:33;;;;;;;9.90;8.00;;;;;;;;;;5010204;28;20660;-71
2023/08/24 09:40:07;;;;;;;11.45;8.73;;;;;;;;;;5010672;28;20256;-69
2023/08/24 09:42:36;;;;;;;8.90;7.50;;;;;;;;;;5010268;28;20186;-69
2023/08/24 09:45:05;;;;;;;10.55;7.30;;;;;;;;;;5011110;28;20739;-70
2023/08/24 09:47:30;;;;;;;13.43;8.43;;;;;;;;;;5011205;28;20320;-71
2023/08/24 09:49:55;;;;;;;9.95;7.03;;;;;;;;;;5010591;28;20207;-70
2023/08/24 09:52:21;;;;;;;10.90;7.63;;;;;;;;;;5009343;28;20265;-70
2023/08/24 09:54:47;;;;;;;10.88;8.23;;;;;;;;;;5010851;28;20755;-69
2023/08/24 09:57:12;;;;;;;12.23;7.60;;;;;;;;;;5010673;28;20183;-70
2023/08/24 09:59:39;;;;;;;11.80;8.23;;;;;;;;;;5010084;28;21023;-70
2023/08/24 10:02:07;;;;;;;8.07;6.95;;;;;;;;;;5009804;28;20304;-70
2023/08/24 10:04:35;;;;;;;10.90;8.70;;;;;;;;;;5009602;28;20191;-70
2023/08/24 10:07:03;;;;;;;8.65;6.18;;;;;;;;;;5005222;28;20300;-70
2023/08/24 10:09:31;;;;;;;14.38;9.40;;;;;;;;;;5008503;28;20276;-70
2023/08/24 10:11:59;;;;;;;9.18;6.75;;;;;;;;;;5003915;28;20273;-70
2023/08/24 10:14:28;;;;;;;11.48;8.75;;;;;;;;;;5008435;28;20288;-70
2023/08/24 10:16:55;;;;;;;8.75;7.07;;;;;;;;;;5007408;28;20186;-70
2023/08/24 10:19:22;;;;;;;10.38;7.47;;;;;;;;;;5008475;28;20692;-69
2023/08/24 10:21:48;;;;;;;13.35;10.07;;;;;;;;;;5009749;28;21373;-69
2023/08/24 10:24:14;;;;;;;9.52;7.80;;;;;;;;;;5009271;28;20186;-70
2023/08/24 10:26:40;;;;;;;11.10;8.85;;;;;;;;;;5005252;28;20847;-70
2023/08/24 10:29:06;;;;;;;14.10;9.02;;;;;;;;;;5008624;28;20656;-70
2023/08/24 10:31:31;;;;;;;12.75;9.57;;;;;;;;;;5009780;28;20270;-70
2023/08/24 10:33:58;;;;;;;12.80;9.32;;;;;;;;;;5009421;28;20210;-69
2023/08/24 10:36:23;;;;;;;12.68;9.20;;;;;;;;;;5008894;28;20194;-70
2023/08/24 10:38:49;;;;;;;14.25;10.65;;;;;;;;;;5007789;28;20202;-70
2023/08/24 10:41:14;;;;;;;14.57;10.05;;;;;;;;;;5008517;28;20649;-70
2023/08/24 10:43:41;;;;;;;17.75;12.25;;;;;;;;;;5006559;28;20623;-69
2023/08/24 10:46:13;;;;;;;14.80;10.20;;;;;;;;;;5008275;28;20324;-70
2023/08/24 10:48:41;;;;;;;13.43;9.57;;;;;;;;;;5008913;28;20218;-70
2023/08/24 10:51:17;;;;;;;13.35;11.23;;;;;;;;;;5007627;28;20535;-70
2023/08/24 10:54:02;;;;;;;14.48;11.00;;;;;;;;;;5008982;28;20240;-70
2023/08/24 10:56:34;;;;;;;15.93;9.77;;;;;;;;;;5008498;28;20292;-70
2023/08/24 10:59:09;;;;;;;13.15;10.02;;;;;;;;;;5009529;28;20668;-69
2023/08/24 11:01:37;;;;;;;18.15;11.43;;;;;;;;;;5009160;28;20228;-69
2023/08/24 11:04:04;;;;;;;14.35;10.63;;;;;;;;;;5004864;28;20201;-70
2023/08/24 11:06:30;;;;;;;17.85;12.02;;;;;;;;;;5007111;28;20193;-69
2023/08/24 11:09:14;;;;;;;13.52;11.00;;;;;;;;;;5007789;28;20225;-70
2023/08/24 11:11:43;;;;;;;12.85;10.07;;;;;;;;;;5009111;28;20188;-69
2023/08/24 11:14:19;;;;;;;15.43;11.15;;;;;;;;;;5009355;28;21009;-70
2023/08/24 11:16:45;;;;;;;14.43;12.25;;;;;;;;;;5008764;28;21610;-70
2023/08/24 11:19:12;;;;;;;12.80;10.52;;;;;;;;;;5008327;28;20213;-69
2023/08/24 11:21:38;;;;;;;12.88;10.93;;;;;;;;;;5004693;28;20182;-70
2023/08/24 11:24:04;;;;;;;13.70;12.02;;;;;;;;;;5009346;28;20189;-70
2023/08/24 11:26:30;;;;;;;12.80;11.35;;;;;;;;;;5008821;28;20199;-70
2023/08/24 11:28:57;;;;;;;15.43;11.57;;;;;;;;;;5006377;28;20213;-69
2023/08/24 11:31:23;;;;;;;16.52;13.45;;;;;;;;;;5008614;28;20206;-69
2023/08/24 11:33:48;;;;;;;14.45;12.93;;;;;;;;;;5008835;28;20187;-69
2023/08/24 11:36:13;;;;;;;17.42;12.60;;;;;;;;;;5007952;28;20183;-68
2023/08/24 11:38:42;;;;;;;16.85;10.70;;;;;;;;;;5007647;28;20570;-68
2023/08/24 11:41:17;;;;;;;13.48;11.50;;;;;;;;;;5008586;28;20183;-68
2023/08/24 11:43:43;;;;;;;17.98;11.88;;;;;;;;;;5009230;28;20182;-68
2023/08/24 11:46:08;;;;;;;17.80;11.95;;;;;;;;;;5009128;28;20179;-69
2023/08/24 11:48:36;;;;;;;13.30;11.02;;;;;;;;;;5008399;28;20348;-69
2023/08/24 11:51:02;;;;;;;12.95;11.60;;;;;;;;;;5007865;28;20179;-69
2023/08/24 11:53:29;;;;;;;15.30;12.38;;;;;;;;;;5008565;28;20181;-69
2023/08/24 11:55:54;;;;;;;13.05;11.18;;;;;;;;;;5008018;28;20311;-69
2023/08/24 11:58:20;;;;;;;12.82;10.60;;;;;;;;;;5003880;28;20721;-70
2023/08/24 12:00:46;;;;;;;15.80;13.00;;;;;;;;;;5007880;28;20197;-70
2023/08/24 12:03:11;;;;;;;16.60;11.02;;;;;;;;;;5008585;28;20575;-70
2023/08/24 12:05:37;;;;;;;15.70;11.07;;;;;;;;;;5006929;28;20327;-70
2023/08/24 12:08:02;;;;;;;14.30;10.00;;;;;;;;;;5007623;28;20661;-70
2023/08/24 12:10:28;;;;;;;13.90;12.48;;;;;;;;;;5038172;23;20238;-70
2023/08/24 12:13:06;;;;;;;14.93;12.15;;;;;;;;;;5030587;28;20246;-71
2023/08/24 12:15:34;;;;;;;11.52;9.25;;;;;;;;;;5028769;28;20213;-70
2023/08/24 12:18:06;;;;;;;12.00;8.52;;;;;;;;;;5029926;28;20201;-71
2023/08/24 12:20:31;;;;;;;17.35;12.02;;;;;;;;;;5011580;28;20885;-71
2023/08/24 12:22:58;;;;;;;15.20;11.38;;;;;;;;;;5009241;28;20272;-71
2023/08/24 12:25:24;;;;;;;12.40;9.98;;;;;;;;;;5010570;28;20232;-71
2023/08/24 12:28:07;;;;;;;13.52;12.02;;;;;;;;;;5008357;28;20590;-71
2023/08/24 12:30:33;;;;;;;12.40;10.43;;;;;;;;;;5011118;28;20203;-70
2023/08/24 12:32:58;;;;;;;12.30;10.85;;;;;;;;;;5010382;28;20232;-71
2023/08/24 12:35:24;;;;;;;18.57;10.63;;;;;;;;;;5009183;28;20294;-70
2023/08/24 12:37:49;;;;;;;14.13;11.63;;;;;;;;;;5009846;28;20834;-70
2023/08/24 12:40:15;;;;;;;17.37;12.07;;;;;;;;;;5010775;28;20790;-71
2023/08/24 12:42:40;;;;;;;13.75;11.40;;;;;;;;;;5006358;28;20807;-71
2023/08/24 12:45:05;;;;;;;14.73;11.88;;;;;;;;;;5011105;28;20224;-71
2023/08/24 12:47:31;;;;;;;15.13;11.52;;;;;;;;;;5013644;28;20274;-71
2023/08/24 12:49:56;;;;;;;15.38;11.20;;;;;;;;;;5022138;28;20202;-72
2023/08/24 12:52:23;;;;;;;18.08;10.75;;;;;;;;;;5021827;28;20194;-71
2023/08/24 12:54:48;;;;;;;15.88;10.88;;;;;;;;;;5015164;28;20199;-71
2023/08/24 12:57:14;;;;;;;20.85;11.00;;;;;;;;;;5012013;28;20193;-72
2023/08/24 12:59:39;;;;;;;14.07;10.13;;;;;;;;;;5021739;28;20304;-71
2023/08/24 13:02:05;;;;;;;14.40;11.65;;;;;;;;;;5021984;28;20200;-71
2023/08/24 13:04:32;;;;;;;15.23;10.25;;;;;;;;;;5019238;28;20182;-72
2023/08/24 13:06:57;;;;;;;12.35;10.38;;;;;;;;;;5018567;28;20193;-70
2023/08/24 13:09:23;;;;;;;13.60;11.30;;;;;;;;;;5018004;28;20222;-71
2023/08/24 13:11:48;;;;;;;15.82;12.60;;;;;;;;;;5016454;28;20193;-71
2023/08/24 13:14:13;;;;;;;12.77;10.55;;;;;;;;;;5017044;28;20706;-71
2023/08/24 13:16:39;;;;;;;17.87;11.17;;;;;;;;;;5015769;28;20197;-71
2023/08/24 13:19:04;;;;;;;16.07;13.67;;;;;;;;;;5017231;28;20504;-71
2023/08/24 13:21:29;;;;;;;12.47;10.70;;;;;;;;;;5017544;28;20182;-71
2023/08/24 13:23:55;;;;;;;14.73;12.10;;;;;;;;;;5016716;28;20478;-71
2023/08/24 13:26:20;;;;;;;13.93;11.60;;;;;;;;;;5015889;28;20182;-70
2023/08/24 13:28:47;;;;;;;13.32;11.30;;;;;;;;;;5016309;28;20639;-71
2023/08/24 13:31:12;;;;;;;15.52;13.10;;;;;;;;;;5014902;28;20195;-71
2023/08/24 13:33:37;;;;;;;15.60;12.43;;;;;;;;;;5015942;28;20194;-71
2023/08/24 13:36:03;;;;;;;15.40;13.33;;;;;;;;;;5019443;28;20799;-71
2023/08/24 13:38:28;;;;;;;17.02;12.15;;;;;;;;;;5012233;28;20420;-71
2023/08/24 13:40:53;;;;;;;16.37;12.23;;;;;;;;;;5012558;28;20190;-72
2023/08/24 13:43:19;;;;;;;16.40;12.00;;;;;;;;;;5008644;28;20438;-71
2023/08/24 13:45:45;;;;;;;14.95;12.75;;;;;;;;;;5012962;28;20462;-71
2023/08/24 13:48:10;;;;;;;12.23;10.93;;;;;;;;;;5013812;28;20186;-72
2023/08/24 13:50:35;;;;;;;13.02;11.60;;;;;;;;;;5011123;28;20221;-70
2023/08/24 13:53:00;;;;;;;17.88;12.75;;;;;;;;;;5012909;28;20300;-71
2023/08/24 13:55:26;;;;;;;15.07;12.13;;;;;;;;;;5013083;28;20199;-71
2023/08/24 13:57:51;;;;;;;14.03;12.30;;;;;;;;;;5013250;28;20428;-71
2023/08/24 14:00:16;;;;;;;13.53;11.70;;;;;;;;;;5012252;28;21211;-71
2023/08/24 14:02:42;;;;;;;11.52;9.70;;;;;;;;;;5008809;28;20438;-71
2023/08/24 14:05:09;;;;;;;15.80;13.30;;;;;;;;;;5011398;28;20179;-71
2023/08/24 14:07:35;;;;;;;13.10;9.10;;;;;;;;;;5018693;28;20761;-70
2023/08/24 14:10:00;;;;;;;17.88;12.23;;;;;;;;;;5024532;28;20237;-70
2023/08/24 14:12:26;;;;;;;13.90;10.15;;;;;;;;;;5017020;28;20191;-71
2023/08/24 14:14:51;;;;;;;16.77;11.57;;;;;;;;;;5015103;28;20222;-72
2023/08/24 14:17:16;;;;;;;12.38;10.73;;;;;;;;;;5014975;28;20187;-71
2023/08/24 14:19:41;;;;;;;12.97;10.13;;;;;;;;;;5013185;28;20216;-71
2023/08/24 14:22:06;;;;;;;14.00;10.25;;;;;;;;;;5012877;28;20448;-70